createdAt,value
2023-04-01T00:01:18.595Z,14.13
2023-04-01T00:03:46.385Z,14.11
2023-04-01T00:06:19.065Z,14.23
2023-04-01T00:08:47.291Z,14.19
2023-04-01T00:11:15.983Z,14.28
2023-04-01T00:13:43.703Z,14.20
2023-04-01T00:16:21.129Z,14.28
2023-04-01T00:18:51.487Z,14.27
2023-04-01T00:21:19.966Z,14.22
2023-04-01T00:23:47.250Z,14.22
2023-04-01T00:26:15.539Z,14.14
2023-04-01T00:28:42.710Z,14.25
2023-04-01T00:31:11.328Z,14.26
2023-04-01T00:33:41.697Z,14.21
2023-04-01T00:36:18.528Z,14.16
2023-04-01T00:38:46.806Z,14.18
2023-04-01T00:41:16.929Z,14.22
2023-04-01T00:43:48.904Z,14.27
2023-04-01T00:46:16.565Z,14.32
2023-04-01T00:48:55.747Z,14.16
2023-04-01T00:51:29.798Z,14.30
2023-04-01T00:53:59.992Z,14.07
2023-04-01T00:56:42.426Z,14.08
2023-04-01T00:59:17.019Z,14.11
2023-04-01T01:01:44.090Z,14.17
2023-04-01T01:04:29.859Z,14.08
2023-04-01T01:07:41.435Z,14.21
2023-04-01T01:10:23.350Z,14.24
2023-04-01T01:13:57.772Z,14.18
2023-04-01T01:16:35.145Z,14.18
2023-04-01T01:19:49.067Z,14.09
2023-04-01T01:23:00.648Z,14.05
2023-04-01T01:26:07.937Z,14.08
2023-04-01T01:29:02.391Z,14.14
2023-04-01T01:31:43.899Z,14.19
2023-04-01T01:34:48.011Z,14.09
2023-04-01T01:37:22.015Z,14.11
2023-04-01T01:40:02.636Z,14.12
2023-04-01T01:42:32.328Z,14.14
2023-04-01T01:45:01.526Z,14.08
2023-04-01T01:47:30.549Z,14.05
2023-04-01T01:49:59.011Z,14.04
2023-04-01T01:52:29.312Z,14.02
2023-04-01T01:54:59.145Z,14.04
2023-04-01T01:57:38.973Z,14.07
2023-04-01T02:00:15.981Z,14.03
2023-04-01T02:02:48.598Z,14.12
2023-04-01T02:05:26.971Z,14.14
2023-04-01T02:08:31.314Z,14.12
2023-04-01T02:11:08.670Z,14.05
2023-04-01T02:14:04.327Z,14.12
2023-04-01T02:17:09.093Z,14.07
2023-04-01T02:19:46.940Z,14.01
2023-04-01T02:22:25.265Z,13.87
2023-04-01T02:24:59.500Z,13.94
2023-04-01T02:27:26.992Z,14.03
2023-04-01T02:29:54.504Z,14.04
2023-04-01T02:32:22.236Z,13.97
2023-04-01T02:34:50.358Z,13.98
2023-04-01T02:37:18.307Z,13.83
2023-04-01T02:39:45.573Z,13.88
2023-04-01T02:42:12.706Z,13.83
2023-04-01T02:44:39.815Z,13.93
2023-04-01T02:47:07.052Z,13.83
2023-04-01T02:49:34.127Z,13.98
2023-04-01T02:52:01.193Z,14.06
2023-04-01T02:54:28.243Z,13.84
2023-04-01T02:56:55.368Z,13.84
2023-04-01T02:59:22.485Z,13.97
2023-04-01T03:01:52.474Z,14.06
2023-04-01T03:04:19.526Z,14.11
2023-04-01T03:06:46.692Z,14.10
2023-04-01T03:09:13.884Z,13.73
2023-04-01T03:11:41.798Z,13.70
2023-04-01T03:14:08.885Z,13.74
2023-04-01T03:16:36.235Z,13.70
2023-04-01T03:19:03.404Z,13.84
2023-04-01T03:21:30.904Z,13.93
2023-04-01T03:23:58.138Z,13.98
2023-04-01T03:26:27.596Z,13.89
2023-04-01T03:28:55.926Z,14.03
2023-04-01T03:31:23.936Z,14.16
2023-04-01T03:33:51.538Z,14.14
2023-04-01T03:36:19.284Z,14.16
2023-04-01T03:38:46.506Z,13.99
2023-04-01T03:41:18.423Z,14.15
2023-04-01T03:43:46.349Z,14.16
2023-04-01T03:46:19.520Z,14.09
2023-04-01T03:48:47.104Z,14.05
2023-04-01T03:51:14.502Z,14.12
2023-04-01T03:53:41.529Z,14.13
2023-04-01T03:56:10.071Z,14.07
2023-04-01T03:58:37.558Z,13.98
2023-04-01T04:01:13.616Z,13.83
2023-04-01T04:03:40.819Z,13.96
2023-04-01T04:06:13.800Z,13.86
2023-04-01T04:08:41.131Z,13.46
2023-04-01T04:11:08.991Z,13.36
2023-04-01T04:13:36.943Z,13.57
2023-04-01T04:16:05.261Z,13.76
2023-04-01T04:18:32.428Z,13.85
2023-04-01T04:20:59.531Z,13.91
2023-04-01T04:23:26.767Z,13.90
2023-04-01T04:26:08.069Z,13.87
2023-04-01T04:28:35.617Z,13.36
2023-04-01T04:31:05.773Z,13.58
2023-04-01T04:33:33.938Z,13.50
2023-04-01T04:36:02.589Z,13.59
2023-04-01T04:38:30.310Z,13.77
2023-04-01T04:40:57.626Z,13.36
2023-04-01T04:43:24.840Z,13.66
2023-04-01T04:45:52.761Z,13.59
2023-04-01T04:48:21.122Z,13.77
2023-04-01T04:50:50.843Z,13.76
2023-04-01T04:53:19.845Z,13.81
2023-04-01T04:55:50.628Z,13.93
2023-04-01T04:58:19.329Z,13.99
2023-04-01T05:00:46.946Z,13.44
2023-04-01T05:03:15.792Z,13.40
2023-04-01T05:05:52.859Z,13.76
2023-04-01T05:08:20.651Z,13.86
2023-04-01T05:10:48.121Z,13.80
2023-04-01T05:13:15.469Z,13.84
2023-04-01T05:15:42.553Z,13.79
2023-04-01T05:18:09.700Z,13.77
2023-04-01T05:20:37.017Z,13.83
2023-04-01T05:23:04.560Z,13.77
2023-04-01T05:25:31.811Z,13.58
2023-04-01T05:27:59.065Z,13.63
2023-04-01T05:30:28.988Z,13.66
2023-04-01T05:32:56.123Z,13.79
2023-04-01T05:35:24.112Z,13.72
2023-04-01T05:37:53.552Z,13.91
2023-04-01T05:40:21.429Z,13.88
2023-04-01T05:42:48.742Z,13.85
2023-04-01T05:45:16.778Z,13.84
2023-04-01T05:47:43.958Z,13.99
2023-04-01T05:50:11.911Z,13.53
2023-04-01T05:52:39.904Z,13.08
2023-04-01T05:55:07.829Z,13.45
2023-04-01T05:57:35.734Z,13.24
2023-04-01T06:00:06.168Z,13.67
2023-04-01T06:02:33.327Z,13.86
2023-04-01T06:05:26.314Z,14.05
2023-04-01T06:08:02.107Z,13.89
2023-04-01T06:11:26.507Z,14.13
2023-04-01T06:14:38.205Z,14.20
2023-04-01T06:17:17.197Z,14.16
2023-04-01T06:20:33.546Z,13.82
2023-04-01T06:23:24.421Z,14.01
2023-04-01T06:26:31.796Z,14.11
2023-04-01T06:29:44.001Z,13.82
2023-04-01T06:32:51.505Z,13.79
2023-04-01T06:36:16.423Z,13.99
2023-04-01T06:39:35.826Z,13.87
2023-04-01T06:42:50.598Z,13.98
2023-04-01T06:45:57.935Z,14.12
2023-04-01T06:48:56.564Z,13.77
2023-04-01T06:52:02.953Z,14.01
2023-04-01T06:54:45.256Z,13.69
2023-04-01T06:57:47.579Z,12.82
2023-04-01T07:00:40.006Z,11.52
2023-04-01T07:03:34.077Z,11.09
2023-04-01T07:06:13.261Z,10.69
2023-04-01T07:08:45.005Z,10.57
2023-04-01T07:11:36.669Z,10.58
2023-04-01T07:14:26.812Z,10.60
2023-04-01T07:17:16.786Z,10.32
2023-04-01T07:20:02.058Z,10.64
2023-04-01T07:22:52.605Z,10.68
2023-04-01T07:25:37.774Z,10.82
2023-04-01T07:28:17.747Z,10.10
2023-04-01T07:31:28.957Z,10.13
2023-04-01T07:34:42.910Z,10.36
2023-04-01T07:38:15.860Z,10.78
2023-04-01T07:41:28.568Z,10.22
2023-04-01T07:44:04.003Z,10.20
2023-04-01T07:47:23.742Z,10.32
2023-04-01T07:50:15.383Z,10.22
2023-04-01T07:52:57.206Z,10.17
2023-04-01T07:55:55.433Z,9.74
2023-04-01T07:58:46.883Z,9.98
2023-04-01T08:01:52.331Z,10.01
2023-04-01T08:04:46.031Z,10.30
2023-04-01T08:07:32.975Z,10.03
2023-04-01T08:10:33.789Z,10.73
2023-04-01T08:14:02.751Z,10.01
2023-04-01T08:17:09.000Z,10.25
2023-04-01T08:19:57.367Z,9.99
2023-04-01T08:22:58.142Z,10.33
2023-04-01T08:25:30.706Z,10.27
2023-04-01T08:28:38.815Z,10.17
2023-04-01T08:32:02.294Z,10.28
2023-04-01T08:35:10.508Z,10.58
2023-04-01T08:37:42.307Z,9.60
2023-04-01T08:40:27.414Z,10.27
2023-04-01T08:43:21.821Z,9.77
2023-04-01T08:46:41.072Z,10.36
2023-04-01T08:56:43.553Z,10.00
2023-04-01T08:59:35.711Z,10.04
2023-04-01T09:02:47.097Z,10.27
2023-04-01T09:05:51.238Z,9.78
2023-04-01T09:08:47.400Z,10.09
2023-04-01T09:11:34.977Z,9.70
2023-04-01T09:14:32.436Z,10.21
2023-04-01T09:17:52.896Z,10.16
2023-04-01T09:21:05.320Z,9.84
2023-04-01T09:24:13.997Z,9.64
2023-04-01T09:27:05.181Z,10.13
2023-04-01T09:30:28.992Z,9.83
2023-04-01T09:33:52.852Z,10.12
2023-04-01T09:36:41.631Z,10.03
2023-04-01T09:39:36.151Z,10.22
2023-04-01T09:43:03.791Z,10.21
2023-04-01T09:45:49.973Z,10.13
2023-04-01T09:48:51.392Z,10.02
2023-04-01T09:51:37.334Z,10.45
2023-04-01T09:54:36.198Z,10.26
2023-04-01T09:57:56.382Z,9.76
2023-04-01T10:00:26.400Z,9.69
2023-04-01T10:03:24.792Z,10.24
2023-04-01T10:06:32.121Z,9.61
2023-04-01T10:09:53.296Z,9.74
2023-04-01T10:12:41.387Z,9.78
2023-04-01T10:15:39.122Z,9.59
2023-04-01T10:18:36.185Z,9.90
2023-04-01T10:21:40.323Z,9.97
2023-04-01T10:25:02.732Z,9.80
2023-04-01T10:28:01.871Z,9.68
2023-04-01T10:31:24.263Z,9.50
2023-04-01T10:34:53.401Z,10.05
2023-04-01T10:37:59.810Z,9.77
2023-04-01T10:41:10.651Z,9.97
2023-04-01T10:44:07.473Z,9.50
2023-04-01T10:47:30.521Z,9.68
2023-04-01T10:51:02.618Z,9.26
2023-04-01T10:54:29.002Z,9.93
2023-04-01T10:57:31.233Z,9.50
2023-04-01T11:00:52.429Z,9.88
2023-04-01T11:03:56.519Z,9.98
2023-04-01T11:07:13.877Z,9.59
2023-04-01T11:10:18.071Z,9.58
2023-04-01T11:13:47.312Z,9.99
2023-04-01T11:17:18.011Z,9.70
2023-04-01T11:20:46.390Z,10.07
2023-04-01T11:23:44.018Z,9.53
2023-04-01T11:26:30.516Z,9.57
2023-04-01T11:29:40.541Z,9.37
2023-04-01T11:32:56.933Z,9.81
2023-04-01T11:36:15.967Z,9.56
2023-04-01T11:39:21.607Z,9.60
2023-04-01T11:42:36.882Z,9.78
2023-04-01T11:45:49.339Z,9.07
2023-04-01T11:48:46.449Z,9.39
2023-04-01T11:52:14.889Z,9.35
2023-04-01T11:55:29.498Z,9.31
2023-04-01T11:59:02.722Z,9.20
2023-04-01T12:01:56.813Z,9.26
2023-04-01T12:04:55.406Z,9.06
2023-04-01T12:08:27.591Z,8.99
2023-04-01T12:11:09.182Z,9.14
2023-04-01T12:14:24.694Z,9.03
2023-04-01T12:17:20.472Z,8.61
2023-04-01T12:20:12.914Z,9.34
2023-04-01T12:23:36.167Z,8.92
2023-04-01T12:26:28.780Z,8.78
2023-04-01T12:29:44.764Z,8.81
2023-04-01T12:33:04.153Z,9.38
2023-04-01T12:36:31.340Z,9.11
2023-04-01T12:39:40.661Z,9.20
2023-04-01T12:43:03.591Z,8.91
2023-04-01T12:45:32.864Z,9.05
2023-04-01T12:48:42.844Z,9.11
2023-04-01T12:51:46.495Z,9.18
2023-04-01T12:54:42.194Z,8.82
2023-04-01T12:57:58.623Z,9.37
2023-04-01T13:00:32.392Z,8.46
2023-04-01T13:03:35.262Z,8.89
2023-04-01T13:06:52.942Z,9.03
2023-04-01T13:09:48.041Z,9.10
2023-04-01T13:12:49.976Z,9.22
2023-04-01T13:15:51.758Z,8.90
2023-04-01T13:18:50.862Z,8.83
2023-04-01T13:21:36.484Z,8.80
2023-04-01T13:24:06.952Z,8.70
2023-04-01T13:27:09.463Z,9.12
2023-04-01T13:30:24.389Z,8.99
2023-04-01T13:33:41.473Z,9.00
2023-04-01T13:37:28.387Z,8.80
2023-04-01T13:41:01.698Z,9.03
2023-04-01T13:44:01.187Z,8.73
2023-04-01T13:46:40.034Z,8.95
2023-04-01T13:49:56.226Z,8.98
2023-04-01T13:52:57.427Z,8.32
2023-04-01T13:55:56.591Z,8.98
2023-04-01T13:59:27.658Z,9.03
2023-04-01T14:03:02.007Z,8.80
2023-04-01T14:06:43.455Z,8.47
2023-04-01T14:09:37.413Z,8.47
2023-04-01T14:12:47.649Z,8.58
2023-04-01T14:15:26.862Z,8.86
2023-04-01T14:19:00.649Z,8.34
2023-04-01T14:21:57.781Z,8.67
2023-04-01T14:24:58.863Z,8.28
2023-04-01T14:28:15.982Z,8.66
2023-04-01T14:31:39.660Z,8.76
2023-04-01T14:47:40.945Z,8.18
2023-04-01T14:50:20.100Z,8.36
2023-04-01T14:53:08.838Z,8.07
2023-04-01T14:55:44.581Z,8.12
2023-04-01T14:58:19.370Z,8.21
2023-04-01T15:01:07.922Z,8.21
2023-04-01T15:04:27.561Z,7.91
2023-04-01T15:08:00.947Z,8.13
2023-04-01T15:10:54.599Z,7.98
2023-04-01T15:13:55.261Z,8.44
2023-04-01T15:16:52.685Z,7.89
2023-04-01T15:19:43.755Z,7.74
2023-04-01T15:22:53.865Z,8.14
2023-04-01T15:25:52.376Z,8.49
2023-04-01T15:29:06.034Z,8.41
2023-04-01T15:32:06.090Z,8.53
2023-04-01T15:34:59.707Z,7.95
2023-04-01T15:37:43.446Z,7.89
2023-04-01T15:40:46.844Z,7.74
2023-04-01T15:43:51.663Z,7.78
2023-04-01T15:46:49.683Z,7.66
2023-04-01T15:49:48.211Z,7.91
2023-04-01T15:52:48.979Z,7.68
2023-04-01T15:55:56.219Z,7.57
2023-04-01T15:58:59.386Z,7.12
2023-04-01T16:02:38.982Z,7.74
2023-04-01T16:05:52.746Z,7.87
2023-04-01T16:09:11.570Z,8.02
2023-04-01T16:11:51.442Z,7.63
2023-04-01T16:14:46.976Z,7.66
2023-04-01T16:17:54.797Z,7.67
2023-04-01T16:20:46.274Z,7.60
2023-04-01T16:23:38.359Z,7.45
2023-04-01T16:26:59.665Z,7.38
2023-04-01T16:29:54.951Z,7.35
2023-04-01T16:33:00.745Z,7.15
2023-04-01T16:35:49.610Z,7.48
2023-04-01T16:38:39.262Z,7.50
2023-04-01T16:41:36.705Z,7.21
2023-04-01T16:44:28.435Z,7.03
2023-04-01T16:47:10.578Z,7.55
2023-04-01T16:50:20.647Z,7.01
2023-04-01T16:53:18.181Z,6.84
2023-04-01T16:56:06.219Z,7.09
2023-04-01T16:58:55.359Z,6.99
2023-04-01T17:01:52.838Z,6.77
2023-04-01T17:04:53.268Z,7.14
2023-04-01T17:07:37.802Z,6.95
2023-04-01T17:10:51.876Z,6.64
2023-04-01T17:13:46.973Z,6.43
2023-04-01T17:16:45.919Z,6.44
2023-04-01T17:19:49.933Z,6.37
2023-04-01T17:22:54.077Z,6.37
2023-04-01T17:25:33.269Z,6.82
2023-04-01T17:28:41.210Z,6.82
2023-04-01T17:31:27.039Z,6.46
2023-04-01T17:34:15.617Z,6.00
2023-04-01T17:37:30.902Z,6.78
2023-04-01T17:40:36.404Z,6.47
2023-04-01T17:43:48.665Z,6.24
2023-04-01T17:46:48.049Z,6.29
2023-04-01T17:49:43.414Z,6.39
2023-04-01T17:53:13.239Z,5.96
2023-04-01T17:56:09.413Z,6.27
2023-04-01T17:59:16.222Z,6.20
2023-04-01T18:02:08.281Z,6.08
2023-04-01T18:05:17.236Z,6.40
2023-04-01T18:08:34.763Z,6.11
2023-04-01T18:11:55.700Z,6.00
2023-04-01T18:15:12.851Z,6.25
2023-04-01T18:18:04.844Z,5.59
2023-04-01T18:20:55.427Z,5.86
2023-04-01T18:24:02.328Z,6.01
2023-04-01T18:26:38.027Z,6.16
2023-04-01T18:29:18.884Z,6.11
2023-04-01T18:31:56.091Z,5.99
2023-04-01T18:35:30.205Z,5.92
2023-04-01T18:38:41.271Z,5.92
2023-04-01T18:42:03.459Z,6.10
2023-04-01T18:44:58.866Z,6.00
2023-04-01T18:48:06.915Z,5.71
2023-04-01T18:51:03.238Z,5.80
2023-04-01T18:53:54.742Z,5.61
2023-04-01T18:56:35.447Z,5.76
2023-04-01T18:59:30.274Z,5.65
2023-04-01T19:02:32.787Z,5.88
2023-04-01T19:05:17.582Z,5.74
2023-04-01T19:07:49.267Z,5.52
2023-04-01T19:10:55.340Z,5.66
2023-04-01T19:13:48.654Z,5.39
2023-04-01T19:17:03.810Z,5.57
2023-04-01T19:20:17.633Z,5.73
2023-04-01T19:23:08.809Z,5.32
2023-04-01T19:25:50.701Z,5.04
2023-04-01T19:28:50.443Z,5.00
2023-04-01T19:32:20.474Z,5.18
2023-04-01T19:35:33.517Z,5.12
2023-04-01T19:38:35.788Z,5.30
2023-04-01T19:41:49.349Z,5.52
2023-04-01T19:44:48.882Z,5.35
2023-04-01T19:48:09.081Z,5.75
2023-04-01T19:51:07.105Z,5.39
2023-04-01T19:54:39.408Z,5.40
2023-04-01T19:57:47.724Z,5.48
2023-04-01T20:00:54.153Z,5.63
2023-04-01T20:03:51.119Z,5.18
2023-04-01T20:06:58.078Z,5.37
2023-04-01T20:10:11.126Z,5.73
2023-04-01T20:13:27.087Z,5.30
2023-04-01T20:16:09.214Z,5.32
2023-04-01T20:19:03.002Z,4.92
2023-04-01T20:21:48.855Z,5.49
2023-04-01T20:24:15.929Z,5.18
2023-04-01T20:26:51.524Z,5.36
2023-04-01T20:30:11.104Z,5.57
2023-04-01T20:33:02.979Z,5.53
2023-04-01T20:36:17.152Z,5.32
2023-04-01T20:40:02.368Z,5.37
2023-04-01T20:43:49.907Z,5.24
2023-04-01T20:47:13.441Z,4.87
2023-04-01T20:50:28.239Z,5.30
2023-04-01T20:53:21.572Z,5.38
2023-04-01T20:55:51.627Z,4.86
2023-04-01T20:59:07.856Z,5.50
2023-04-01T21:02:06.598Z,5.03
2023-04-01T21:05:18.384Z,5.16
2023-04-01T21:08:34.874Z,4.90
2023-04-01T21:12:06.197Z,5.18
2023-04-01T21:15:05.899Z,4.99
2023-04-01T21:18:22.207Z,5.10
2023-04-01T21:21:10.501Z,4.87
2023-04-01T21:23:50.996Z,5.00
2023-04-01T21:27:03.029Z,4.87
2023-04-01T21:30:06.412Z,4.72
2023-04-01T21:33:04.518Z,4.76
2023-04-01T21:36:34.304Z,5.04
2023-04-01T21:39:54.233Z,4.80
2023-04-01T21:43:00.394Z,4.83
2023-04-01T21:46:40.731Z,4.74
2023-04-01T21:49:22.693Z,4.69
2023-04-01T21:53:08.225Z,4.79
2023-04-01T21:56:16.934Z,4.70
2023-04-01T21:59:44.300Z,4.90
2023-04-01T22:02:46.736Z,4.67
2023-04-01T22:05:37.706Z,4.52
2023-04-01T22:08:39.480Z,4.63
2023-04-01T22:11:37.751Z,4.67
2023-04-01T22:14:15.125Z,4.60
2023-04-01T22:17:31.473Z,4.39
2023-04-01T22:20:40.210Z,4.48
2023-04-01T22:23:28.384Z,4.80
2023-04-01T22:26:53.354Z,4.41
2023-04-01T22:29:54.026Z,4.36
2023-04-01T22:32:36.512Z,4.85
2023-04-01T22:35:38.238Z,4.24
2023-04-01T22:39:42.270Z,4.62
2023-04-01T22:42:46.863Z,4.43
2023-04-01T22:45:13.810Z,4.79
2023-04-01T22:48:06.608Z,4.58
2023-04-01T22:51:16.663Z,4.67
2023-04-01T22:54:13.973Z,4.63
2023-04-01T22:57:01.005Z,4.48
2023-04-01T22:59:45.902Z,4.43
2023-04-01T23:02:34.035Z,4.10
2023-04-01T23:05:09.779Z,4.59
2023-04-01T23:08:03.811Z,4.54
2023-04-01T23:10:58.700Z,4.40
2023-04-01T23:13:53.589Z,4.61
2023-04-01T23:16:41.007Z,4.30
2023-04-01T23:19:29.805Z,4.16
2023-04-01T23:22:47.082Z,4.48
2023-04-01T23:25:56.409Z,4.75
2023-04-01T23:28:49.229Z,4.55
2023-04-01T23:31:44.065Z,4.47
2023-04-01T23:34:14.031Z,4.42
2023-04-01T23:36:48.479Z,4.93
2023-04-01T23:39:44.764Z,4.08
2023-04-01T23:42:29.458Z,4.55
2023-04-01T23:45:21.502Z,4.34
2023-04-01T23:47:51.467Z,4.25
2023-04-01T23:50:26.448Z,4.26
2023-04-01T23:53:25.746Z,4.56
2023-04-01T23:55:57.128Z,4.18
2023-04-01T23:58:39.351Z,4.12
